Weather at Lake Minnewashta Seaplane Base

Public forecast

Using degrees Fahrenheit for public forecast. Weather courtesy of forecast.io.

Closest aviation weather report (METAR) to Lake Minnewashta Seaplane Base

Closest report is Flying Cloud Airport, 7.2 nm (13.4 km) ESE. Retrieved 2021/07/28 00:53 UTC (27 minutes ago):

KFCM 280053Z 00000KT 9SM FEW045 32/23 A2993 RMK AO2 SLP129 T03220233

Closest aviation forecast (TAF) to Lake Minnewashta Seaplane Base

Forecast is more than 12 hours old.

Closest forecast is Flying Cloud Airport, 7.2 nm (13.4 km) ESE. Retrieved 2018/02/05 00:21 UTC (3 years ago):

TAF KFCM 052320Z 0600/0624 30007KT P6SM FEW200 FM061000 VRB03KT P6SM FEW250 FM061800 22006KT P6SM SCT100 BKN250 AMD NOT SKED